Terminal Aerodrome Forecast
Issued by NWS

Home | Current Version | Previous Version | Text Only | Print | Product List | Glossary On
Versions: 1 2 3 4 5 6 7 8 9 10 11 12 13
000
FTUS42 TJSJ 010500
TAFJBQ
TAF
TJBQ 010540Z 0106/0206 11010KT P6SM FEW025 SCT060
     FM011330 07012KT P6SM FEW030 SCT050
     FM011730 06015KT P6SM VCTS SCT030CB BKN050
     FM012330 11010KT P6SM FEW025 SCT050
      AMD NOT SKED TIL 011100=

USA.gov is the U.S. government's official web portal to all federal, state and local government web resources and services.